sensor_id;sensor_type;location;lat;lon;timestamp;temperature;humidity
30001;DHT22;16845;48.670;9.000;2022-11-20T00:00:56;4.80;99.90
30001;DHT22;16845;48.670;9.000;2022-11-20T00:03:24;4.80;99.90
30001;DHT22;16845;48.670;9.000;2022-11-20T00:05:52;4.70;99.90
30001;DHT22;16845;48.670;9.000;2022-11-20T00:08:19;4.70;99.90
30001;DHT22;16845;48.670;9.000;2022-11-20T00:10:47;4.70;99.90
30001;DHT22;16845;48.670;9.000;2022-11-20T00:13:15;4.70;99.90
30001;DHT22;16845;48.670;9.000;2022-11-20T00:15:43;4.70;99.90
30001;DHT22;16845;48.670;9.000;2022-11-20T00:18:12;4.70;99.90
30001;DHT22;16845;48.670;9.000;2022-11-20T00:20:40;4.70;99.90
30001;DHT22;16845;48.670;9.000;2022-11-20T00:23:08;4.70;99.90
30001;DHT22;16845;48.670;9.000;2022-11-20T00:25:36;4.80;99.90
30001;DHT22;16845;48.670;9.000;2022-11-20T00:28:04;4.80;99.90
30001;DHT22;16845;48.670;9.000;2022-11-20T00:30:32;4.80;99.90
30001;DHT22;16845;48.670;9.000;2022-11-20T00:33:00;4.80;99.90
30001;DHT22;16845;48.670;9.000;2022-11-20T00:35:29;4.90;99.90
30001;DHT22;16845;48.670;9.000;2022-11-20T00:37:57;4.90;99.90
30001;DHT22;16845;48.670;9.000;2022-11-20T00:40:25;4.90;99.90
30001;DHT22;16845;48.670;9.000;2022-11-20T00:42:53;4.90;99.90
30001;DHT22;16845;48.670;9.000;2022-11-20T00:45:21;4.90;99.90
30001;DHT22;16845;48.670;9.000;2022-11-20T00:47:49;5.00;99.90
30001;DHT22;16845;48.670;9.000;2022-11-20T00:50:17;4.90;99.90
30001;DHT22;16845;48.670;9.000;2022-11-20T00:52:46;4.80;99.90
30001;DHT22;16845;48.670;9.000;2022-11-20T00:55:14;4.90;99.90
30001;DHT22;16845;48.670;9.000;2022-11-20T00:57:42;4.80;99.90
30001;DHT22;16845;48.670;9.000;2022-11-20T01:00:10;4.90;99.90
30001;DHT22;16845;48.670;9.000;2022-11-20T01:02:38;4.90;99.90
30001;DHT22;16845;48.670;9.000;2022-11-20T01:05:06;4.90;99.90
30001;DHT22;16845;48.670;9.000;2022-11-20T01:07:34;4.80;99.90
30001;DHT22;16845;48.670;9.000;2022-11-20T01:10:04;4.90;99.90
30001;DHT22;16845;48.670;9.000;2022-11-20T01:12:32;4.80;99.90
30001;DHT22;16845;48.670;9.000;2022-11-20T01:15:00;4.70;99.90
30001;DHT22;16845;48.670;9.000;2022-11-20T01:17:28;4.60;99.90
30001;DHT22;16845;48.670;9.000;2022-11-20T01:19:58;4.60;99.90
30001;DHT22;16845;48.670;9.000;2022-11-20T01:22:26;4.60;99.90
30001;DHT22;16845;48.670;9.000;2022-11-20T01:24:54;4.50;99.90
30001;DHT22;16845;48.670;9.000;2022-11-20T01:27:23;4.50;99.90
30001;DHT22;16845;48.670;9.000;2022-11-20T01:29:51;4.50;99.90
30001;DHT22;16845;48.670;9.000;2022-11-20T01:32:26;4.50;99.90
30001;DHT22;16845;48.670;9.000;2022-11-20T01:34:54;4.50;99.90
30001;DHT22;16845;48.670;9.000;2022-11-20T01:37:22;4.50;99.90
30001;DHT22;16845;48.670;9.000;2022-11-20T01:39:50;4.40;99.90
30001;DHT22;16845;48.670;9.000;2022-11-20T01:42:18;4.40;99.90
30001;DHT22;16845;48.670;9.000;2022-11-20T01:48:14;4.30;99.90
30001;DHT22;16845;48.670;9.000;2022-11-20T01:50:43;4.30;99.90
30001;DHT22;16845;48.670;9.000;2022-11-20T01:53:14;4.30;99.90
30001;DHT22;16845;48.670;9.000;2022-11-20T01:55:45;4.30;99.90
30001;DHT22;16845;48.670;9.000;2022-11-20T01:58:16;4.30;99.90
30001;DHT22;16845;48.670;9.000;2022-11-20T02:00:44;4.30;99.90
30001;DHT22;16845;48.670;9.000;2022-11-20T02:03:15;4.30;99.90
30001;DHT22;16845;48.670;9.000;2022-11-20T02:05:46;4.30;99.90
30001;DHT22;16845;48.670;9.000;2022-11-20T02:08:18;4.30;99.90
30001;DHT22;16845;48.670;9.000;2022-11-20T02:10:46;4.20;99.90
30001;DHT22;16845;48.670;9.000;2022-11-20T02:13:15;4.10;99.90
30001;DHT22;16845;48.670;9.000;2022-11-20T02:16:00;4.10;99.90
30001;DHT22;16845;48.670;9.000;2022-11-20T02:18:30;4.10;99.90
30001;DHT22;16845;48.670;9.000;2022-11-20T02:21:01;4.10;99.90
30001;DHT22;16845;48.670;9.000;2022-11-20T02:23:36;4.10;99.90
30001;DHT22;16845;48.670;9.000;2022-11-20T02:26:10;4.10;99.90
30001;DHT22;16845;48.670;9.000;2022-11-20T02:28:39;4.10;99.90
30001;DHT22;16845;48.670;9.000;2022-11-20T02:31:07;4.10;99.90
30001;DHT22;16845;48.670;9.000;2022-11-20T02:33:35;4.20;99.90
30001;DHT22;16845;48.670;9.000;2022-11-20T02:36:04;4.20;99.90
30001;DHT22;16845;48.670;9.000;2022-11-20T02:38:32;4.20;99.90
30001;DHT22;16845;48.670;9.000;2022-11-20T02:41:00;4.20;99.90
30001;DHT22;16845;48.670;9.000;2022-11-20T02:43:29;4.30;99.90
30001;DHT22;16845;48.670;9.000;2022-11-20T02:45:57;4.40;99.90
30001;DHT22;16845;48.670;9.000;2022-11-20T02:48:25;4.40;99.90
30001;DHT22;16845;48.670;9.000;2022-11-20T02:50:59;4.40;99.90
30001;DHT22;16845;48.670;9.000;2022-11-20T02:53:28;4.40;99.90
30001;DHT22;16845;48.670;9.000;2022-11-20T02:55:56;4.50;99.90
30001;DHT22;16845;48.670;9.000;2022-11-20T02:58:24;4.50;99.90
30001;DHT22;16845;48.670;9.000;2022-11-20T03:00:53;4.50;99.90
30001;DHT22;16845;48.670;9.000;2022-11-20T03:03:21;4.50;99.90
30001;DHT22;16845;48.670;9.000;2022-11-20T03:05:49;4.40;99.90
30001;DHT22;16845;48.670;9.000;2022-11-20T03:08:17;4.30;99.90
30001;DHT22;16845;48.670;9.000;2022-11-20T03:10:45;4.30;99.90
30001;DHT22;16845;48.670;9.000;2022-11-20T03:13:13;4.30;99.90
30001;DHT22;16845;48.670;9.000;2022-11-20T03:15:41;4.20;99.90
30001;DHT22;16845;48.670;9.000;2022-11-20T03:18:11;4.20;99.90
30001;DHT22;16845;48.670;9.000;2022-11-20T03:20:40;4.20;99.90
30001;DHT22;16845;48.670;9.000;2022-11-20T03:23:08;4.20;99.90
30001;DHT22;16845;48.670;9.000;2022-11-20T03:25:36;4.20;99.90
30001;DHT22;16845;48.670;9.000;2022-11-20T03:28:04;4.00;99.90
30001;DHT22;16845;48.670;9.000;2022-11-20T03:30:32;4.00;99.90
30001;DHT22;16845;48.670;9.000;2022-11-20T03:33:00;4.00;99.90
30001;DHT22;16845;48.670;9.000;2022-11-20T03:35:29;4.00;99.90
30001;DHT22;16845;48.670;9.000;2022-11-20T03:37:57;4.00;99.90
30001;DHT22;16845;48.670;9.000;2022-11-20T03:40:25;3.90;99.90
30001;DHT22;16845;48.670;9.000;2022-11-20T03:42:53;3.90;99.90
30001;DHT22;16845;48.670;9.000;2022-11-20T03:45:21;3.90;99.90
30001;DHT22;16845;48.670;9.000;2022-11-20T03:47:49;3.80;99.90
30001;DHT22;16845;48.670;9.000;2022-11-20T03:50:18;3.80;99.90
30001;DHT22;16845;48.670;9.000;2022-11-20T03:52:47;3.80;99.90
30001;DHT22;16845;48.670;9.000;2022-11-20T03:55:15;3.80;99.90
30001;DHT22;16845;48.670;9.000;2022-11-20T03:57:43;3.80;99.90
30001;DHT22;16845;48.670;9.000;2022-11-20T04:00:12;3.80;99.90
30001;DHT22;16845;48.670;9.000;2022-11-20T04:02:40;3.80;99.90
30001;DHT22;16845;48.670;9.000;2022-11-20T04:05:08;3.80;99.90
30001;DHT22;16845;48.670;9.000;2022-11-20T04:07:36;3.90;99.90
30001;DHT22;16845;48.670;9.000;2022-11-20T04:10:06;3.90;99.90
30001;DHT22;16845;48.670;9.000;2022-11-20T04:12:34;4.00;99.90
30001;DHT22;16845;48.670;9.000;2022-11-20T04:15:03;4.00;99.90
30001;DHT22;16845;48.670;9.000;2022-11-20T04:17:31;4.10;99.90
30001;DHT22;16845;48.670;9.000;2022-11-20T04:19:59;4.20;99.90
30001;DHT22;16845;48.670;9.000;2022-11-20T04:22:27;4.30;99.90
30001;DHT22;16845;48.670;9.000;2022-11-20T04:24:55;4.30;99.90
30001;DHT22;16845;48.670;9.000;2022-11-20T04:27:24;4.30;99.90
30001;DHT22;16845;48.670;9.000;2022-11-20T04:29:52;4.30;99.90
30001;DHT22;16845;48.670;9.000;2022-11-20T04:32:20;4.30;99.90
30001;DHT22;16845;48.670;9.000;2022-11-20T04:34:48;4.40;99.90
30001;DHT22;16845;48.670;9.000;2022-11-20T04:37:15;4.40;99.90
30001;DHT22;16845;48.670;9.000;2022-11-20T04:39:43;4.40;99.90
30001;DHT22;16845;48.670;9.000;2022-11-20T04:42:11;4.40;99.90
30001;DHT22;16845;48.670;9.000;2022-11-20T04:44:59;4.40;99.90
30001;DHT22;16845;48.670;9.000;2022-11-20T04:47:27;4.40;99.90
30001;DHT22;16845;48.670;9.000;2022-11-20T04:49:54;4.40;99.90
30001;DHT22;16845;48.670;9.000;2022-11-20T04:52:22;4.40;99.90
30001;DHT22;16845;48.670;9.000;2022-11-20T04:54:50;4.50;99.90
30001;DHT22;16845;48.670;9.000;2022-11-20T04:57:19;4.50;99.90
30001;DHT22;16845;48.670;9.000;2022-11-20T04:59:47;4.50;99.90
30001;DHT22;16845;48.670;9.000;2022-11-20T05:02:17;4.50;99.90
30001;DHT22;16845;48.670;9.000;2022-11-20T05:04:45;4.50;99.90
30001;DHT22;16845;48.670;9.000;2022-11-20T05:07:13;4.60;99.90
30001;DHT22;16845;48.670;9.000;2022-11-20T05:09:41;4.60;99.90
30001;DHT22;16845;48.670;9.000;2022-11-20T05:12:09;4.60;99.90
30001;DHT22;16845;48.670;9.000;2022-11-20T05:14:37;4.70;99.90
30001;DHT22;16845;48.670;9.000;2022-11-20T05:17:05;4.70;99.90
30001;DHT22;16845;48.670;9.000;2022-11-20T05:19:34;4.70;99.90
30001;DHT22;16845;48.670;9.000;2022-11-20T05:22:03;4.70;99.90
30001;DHT22;16845;48.670;9.000;2022-11-20T05:24:31;4.60;99.90
30001;DHT22;16845;48.670;9.000;2022-11-20T05:26:59;4.60;99.90
30001;DHT22;16845;48.670;9.000;2022-11-20T05:29:27;4.60;99.90
30001;DHT22;16845;48.670;9.000;2022-11-20T05:31:55;4.70;99.90
30001;DHT22;16845;48.670;9.000;2022-11-20T05:34:23;4.60;99.90
30001;DHT22;16845;48.670;9.000;2022-11-20T05:36:52;4.70;99.90
30001;DHT22;16845;48.670;9.000;2022-11-20T05:39:20;4.70;99.90
30001;DHT22;16845;48.670;9.000;2022-11-20T05:41:48;4.70;99.90
30001;DHT22;16845;48.670;9.000;2022-11-20T05:44:37;4.70;99.90
30001;DHT22;16845;48.670;9.000;2022-11-20T05:47:05;4.70;99.90
30001;DHT22;16845;48.670;9.000;2022-11-20T05:49:33;4.80;99.90
30001;DHT22;16845;48.670;9.000;2022-11-20T05:52:02;4.80;99.90
30001;DHT22;16845;48.670;9.000;2022-11-20T05:54:31;4.80;99.90
30001;DHT22;16845;48.670;9.000;2022-11-20T05:56:59;4.80;99.90
30001;DHT22;16845;48.670;9.000;2022-11-20T05:59:27;4.80;99.90
30001;DHT22;16845;48.670;9.000;2022-11-20T06:01:55;4.80;99.90
30001;DHT22;16845;48.670;9.000;2022-11-20T06:04:23;4.90;99.90
30001;DHT22;16845;48.670;9.000;2022-11-20T06:06:51;4.90;99.90
30001;DHT22;16845;48.670;9.000;2022-11-20T06:09:20;4.80;99.90
30001;DHT22;16845;48.670;9.000;2022-11-20T06:11:48;4.80;99.90
30001;DHT22;16845;48.670;9.000;2022-11-20T06:14:16;4.80;99.90
30001;DHT22;16845;48.670;9.000;2022-11-20T06:16:44;4.80;99.90
30001;DHT22;16845;48.670;9.000;2022-11-20T06:19:12;4.80;99.90
30001;DHT22;16845;48.670;9.000;2022-11-20T06:21:40;4.80;99.90
30001;DHT22;16845;48.670;9.000;2022-11-20T06:24:09;4.80;99.90
30001;DHT22;16845;48.670;9.000;2022-11-20T06:26:38;4.90;99.90
30001;DHT22;16845;48.670;9.000;2022-11-20T06:29:06;4.90;99.90
30001;DHT22;16845;48.670;9.000;2022-11-20T06:31:34;4.80;99.90
30001;DHT22;16845;48.670;9.000;2022-11-20T06:34:04;4.80;99.90
30001;DHT22;16845;48.670;9.000;2022-11-20T06:36:33;4.80;99.90
30001;DHT22;16845;48.670;9.000;2022-11-20T06:39:01;4.80;99.90
30001;DHT22;16845;48.670;9.000;2022-11-20T06:41:29;4.80;99.90
30001;DHT22;16845;48.670;9.000;2022-11-20T06:43:59;4.80;99.90
30001;DHT22;16845;48.670;9.000;2022-11-20T06:46:26;4.80;99.90
30001;DHT22;16845;48.670;9.000;2022-11-20T06:48:54;4.80;99.90
30001;DHT22;16845;48.670;9.000;2022-11-20T06:51:22;4.90;99.90
30001;DHT22;16845;48.670;9.000;2022-11-20T06:53:50;4.80;99.90
30001;DHT22;16845;48.670;9.000;2022-11-20T06:56:18;4.90;99.90
30001;DHT22;16845;48.670;9.000;2022-11-20T06:58:46;4.90;99.90
30001;DHT22;16845;48.670;9.000;2022-11-20T07:01:15;4.90;99.90
30001;DHT22;16845;48.670;9.000;2022-11-20T07:03:44;5.00;99.90
30001;DHT22;16845;48.670;9.000;2022-11-20T07:06:19;5.00;99.90
30001;DHT22;16845;48.670;9.000;2022-11-20T07:08:47;5.00;99.90
30001;DHT22;16845;48.670;9.000;2022-11-20T07:11:17;5.00;99.90
30001;DHT22;16845;48.670;9.000;2022-11-20T07:13:45;5.10;99.90
30001;DHT22;16845;48.670;9.000;2022-11-20T07:16:14;5.10;99.90
30001;DHT22;16845;48.670;9.000;2022-11-20T07:18:42;5.10;99.90
30001;DHT22;16845;48.670;9.000;2022-11-20T07:21:16;5.20;99.90
30001;DHT22;16845;48.670;9.000;2022-11-20T07:23:44;5.20;99.90
30001;DHT22;16845;48.670;9.000;2022-11-20T07:26:12;5.20;99.90
30001;DHT22;16845;48.670;9.000;2022-11-20T07:28:40;5.20;99.90
30001;DHT22;16845;48.670;9.000;2022-11-20T07:31:08;5.30;99.90
30001;DHT22;16845;48.670;9.000;2022-11-20T07:33:44;5.30;99.90
30001;DHT22;16845;48.670;9.000;2022-11-20T07:36:12;5.40;99.90
30001;DHT22;16845;48.670;9.000;2022-11-20T07:38:40;5.40;99.90
30001;DHT22;16845;48.670;9.000;2022-11-20T07:41:08;5.50;99.90
30001;DHT22;16845;48.670;9.000;2022-11-20T07:43:36;5.60;99.90
30001;DHT22;16845;48.670;9.000;2022-11-20T07:46:07;5.60;99.90
30001;DHT22;16845;48.670;9.000;2022-11-20T07:48:35;5.60;99.90
30001;DHT22;16845;48.670;9.000;2022-11-20T07:51:04;5.60;99.90
30001;DHT22;16845;48.670;9.000;2022-11-20T07:53:32;5.60;99.90
30001;DHT22;16845;48.670;9.000;2022-11-20T07:56:00;5.60;99.90
30001;DHT22;16845;48.670;9.000;2022-11-20T07:58:29;5.60;99.90
30001;DHT22;16845;48.670;9.000;2022-11-20T08:01:02;5.70;99.90
30001;DHT22;16845;48.670;9.000;2022-11-20T08:03:31;5.80;99.90
30001;DHT22;16845;48.670;9.000;2022-11-20T08:05:59;5.90;99.90
30001;DHT22;16845;48.670;9.000;2022-11-20T08:08:29;5.90;99.90
30001;DHT22;16845;48.670;9.000;2022-11-20T08:11:00;5.90;99.90
30001;DHT22;16845;48.670;9.000;2022-11-20T08:13:42;6.00;99.90
30001;DHT22;16845;48.670;9.000;2022-11-20T08:16:32;6.00;99.90
30001;DHT22;16845;48.670;9.000;2022-11-20T08:19:00;6.00;99.90
30001;DHT22;16845;48.670;9.000;2022-11-20T08:21:30;6.00;99.90
30001;DHT22;16845;48.670;9.000;2022-11-20T08:24:06;6.00;99.90
30001;DHT22;16845;48.670;9.000;2022-11-20T08:26:34;6.00;99.90
30001;DHT22;16845;48.670;9.000;2022-11-20T08:29:04;5.90;99.90
30001;DHT22;16845;48.670;9.000;2022-11-20T08:31:32;5.80;99.90
30001;DHT22;16845;48.670;9.000;2022-11-20T08:34:00;5.80;99.90
30001;DHT22;16845;48.670;9.000;2022-11-20T08:36:35;5.80;99.90
30001;DHT22;16845;48.670;9.000;2022-11-20T08:39:04;5.80;99.90
30001;DHT22;16845;48.670;9.000;2022-11-20T08:41:32;5.90;99.90
30001;DHT22;16845;48.670;9.000;2022-11-20T08:44:02;5.90;99.90
30001;DHT22;16845;48.670;9.000;2022-11-20T08:46:33;6.00;99.90
30001;DHT22;16845;48.670;9.000;2022-11-20T08:49:02;6.10;99.90
30001;DHT22;16845;48.670;9.000;2022-11-20T08:51:30;6.10;99.90
30001;DHT22;16845;48.670;9.000;2022-11-20T08:53:58;6.20;99.90
30001;DHT22;16845;48.670;9.000;2022-11-20T08:56:27;6.30;99.90
30001;DHT22;16845;48.670;9.000;2022-11-20T08:58:55;6.40;99.90
30001;DHT22;16845;48.670;9.000;2022-11-20T09:01:43;6.30;99.90
30001;DHT22;16845;48.670;9.000;2022-11-20T09:04:11;6.50;99.90
30001;DHT22;16845;48.670;9.000;2022-11-20T09:06:41;6.60;99.90
30001;DHT22;16845;48.670;9.000;2022-11-20T09:09:08;6.60;99.90
30001;DHT22;16845;48.670;9.000;2022-11-20T09:11:38;6.70;99.90
30001;DHT22;16845;48.670;9.000;2022-11-20T09:14:06;6.60;99.90
30001;DHT22;16845;48.670;9.000;2022-11-20T09:16:34;6.60;99.90
30001;DHT22;16845;48.670;9.000;2022-11-20T09:19:02;6.70;99.90
30001;DHT22;16845;48.670;9.000;2022-11-20T09:21:50;6.60;99.90
30001;DHT22;16845;48.670;9.000;2022-11-20T09:24:25;6.50;99.90
30001;DHT22;16845;48.670;9.000;2022-11-20T09:26:54;6.50;99.90
30001;DHT22;16845;48.670;9.000;2022-11-20T09:29:22;6.40;99.90
30001;DHT22;16845;48.670;9.000;2022-11-20T09:31:50;6.40;99.90
30001;DHT22;16845;48.670;9.000;2022-11-20T09:34:18;6.30;99.90
30001;DHT22;16845;48.670;9.000;2022-11-20T09:36:46;6.30;99.90
30001;DHT22;16845;48.670;9.000;2022-11-20T09:39:14;6.30;99.90
30001;DHT22;16845;48.670;9.000;2022-11-20T09:42:02;6.20;99.90
30001;DHT22;16845;48.670;9.000;2022-11-20T09:44:46;6.20;99.90
30001;DHT22;16845;48.670;9.000;2022-11-20T09:47:23;6.30;99.90
30001;DHT22;16845;48.670;9.000;2022-11-20T09:50:06;6.30;99.90
30001;DHT22;16845;48.670;9.000;2022-11-20T09:52:41;6.30;99.90
30001;DHT22;16845;48.670;9.000;2022-11-20T09:55:12;6.20;99.90
30001;DHT22;16845;48.670;9.000;2022-11-20T09:57:45;6.20;99.90
30001;DHT22;16845;48.670;9.000;2022-11-20T10:00:14;6.20;99.90
30001;DHT22;16845;48.670;9.000;2022-11-20T10:02:46;6.20;99.90
30001;DHT22;16845;48.670;9.000;2022-11-20T10:05:18;6.30;99.90
30001;DHT22;16845;48.670;9.000;2022-11-20T10:07:51;6.30;99.90
30001;DHT22;16845;48.670;9.000;2022-11-20T10:10:29;6.40;99.90
30001;DHT22;16845;48.670;9.000;2022-11-20T10:13:09;6.40;99.90
30001;DHT22;16845;48.670;9.000;2022-11-20T10:15:47;6.40;99.90
30001;DHT22;16845;48.670;9.000;2022-11-20T10:18:27;6.40;99.90
30001;DHT22;16845;48.670;9.000;2022-11-20T10:20:59;6.40;99.90
30001;DHT22;16845;48.670;9.000;2022-11-20T10:23:49;6.40;99.90
30001;DHT22;16845;48.670;9.000;2022-11-20T10:26:25;6.40;99.90
30001;DHT22;16845;48.670;9.000;2022-11-20T10:29:05;6.30;99.90
30001;DHT22;16845;48.670;9.000;2022-11-20T10:31:37;6.30;99.90
30001;DHT22;16845;48.670;9.000;2022-11-20T10:34:13;6.30;99.90
30001;DHT22;16845;48.670;9.000;2022-11-20T10:36:52;6.20;99.90
30001;DHT22;16845;48.670;9.000;2022-11-20T10:39:28;6.30;99.90
30001;DHT22;16845;48.670;9.000;2022-11-20T10:41:58;6.30;99.90
30001;DHT22;16845;48.670;9.000;2022-11-20T10:44:29;6.30;99.90
30001;DHT22;16845;48.670;9.000;2022-11-20T10:47:31;6.40;99.90
30001;DHT22;16845;48.670;9.000;2022-11-20T10:50:03;6.40;99.90
30001;DHT22;16845;48.670;9.000;2022-11-20T10:52:41;6.40;99.90
30001;DHT22;16845;48.670;9.000;2022-11-20T10:55:19;6.40;99.90
30001;DHT22;16845;48.670;9.000;2022-11-20T10:57:54;6.40;99.90
30001;DHT22;16845;48.670;9.000;2022-11-20T11:00:25;6.60;99.90
30001;DHT22;16845;48.670;9.000;2022-11-20T11:02:53;6.70;99.90
30001;DHT22;16845;48.670;9.000;2022-11-20T11:05:33;7.00;99.90
30001;DHT22;16845;48.670;9.000;2022-11-20T11:08:04;7.10;99.90
30001;DHT22;16845;48.670;9.000;2022-11-20T11:10:44;7.30;99.90
30001;DHT22;16845;48.670;9.000;2022-11-20T11:13:20;7.10;99.90
30001;DHT22;16845;48.670;9.000;2022-11-20T11:15:50;7.10;99.90
30001;DHT22;16845;48.670;9.000;2022-11-20T11:18:26;7.10;99.90
30001;DHT22;16845;48.670;9.000;2022-11-20T11:20:55;7.10;99.90
30001;DHT22;16845;48.670;9.000;2022-11-20T11:23:30;7.20;99.90
30001;DHT22;16845;48.670;9.000;2022-11-20T11:26:00;7.10;99.90
30001;DHT22;16845;48.670;9.000;2022-11-20T11:28:29;7.20;99.90
30001;DHT22;16845;48.670;9.000;2022-11-20T11:30:58;7.30;99.90
30001;DHT22;16845;48.670;9.000;2022-11-20T11:33:28;7.50;99.90
30001;DHT22;16845;48.670;9.000;2022-11-20T11:35:59;8.10;99.90
30001;DHT22;16845;48.670;9.000;2022-11-20T11:38:30;8.40;99.90
30001;DHT22;16845;48.670;9.000;2022-11-20T11:41:01;8.30;99.90
30001;DHT22;16845;48.670;9.000;2022-11-20T11:43:31;8.50;99.90
30001;DHT22;16845;48.670;9.000;2022-11-20T11:46:32;8.50;99.90
30001;DHT22;16845;48.670;9.000;2022-11-20T11:49:09;8.60;99.90
30001;DHT22;16845;48.670;9.000;2022-11-20T11:51:47;8.60;99.90
30001;DHT22;16845;48.670;9.000;2022-11-20T11:54:22;8.30;99.90
30001;DHT22;16845;48.670;9.000;2022-11-20T11:56:51;8.60;99.90
30001;DHT22;16845;48.670;9.000;2022-11-20T11:59:26;9.00;99.90
30001;DHT22;16845;48.670;9.000;2022-11-20T12:01:59;9.50;99.90
30001;DHT22;16845;48.670;9.000;2022-11-20T12:04:44;10.40;99.90
30001;DHT22;16845;48.670;9.000;2022-11-20T12:07:19;10.50;99.90
30001;DHT22;16845;48.670;9.000;2022-11-20T12:10:15;10.30;99.90
30001;DHT22;16845;48.670;9.000;2022-11-20T12:12:48;10.40;99.90
30001;DHT22;16845;48.670;9.000;2022-11-20T12:15:25;10.20;99.90
30001;DHT22;16845;48.670;9.000;2022-11-20T12:17:55;9.60;99.90
30001;DHT22;16845;48.670;9.000;2022-11-20T12:20:26;9.30;99.90
30001;DHT22;16845;48.670;9.000;2022-11-20T12:23:00;9.00;99.90
30001;DHT22;16845;48.670;9.000;2022-11-20T12:25:32;8.80;99.90
30001;DHT22;16845;48.670;9.000;2022-11-20T12:28:34;8.70;99.90
30001;DHT22;16845;48.670;9.000;2022-11-20T12:34:23;8.50;99.90
30001;DHT22;16845;48.670;9.000;2022-11-20T12:36:59;9.20;99.90
30001;DHT22;16845;48.670;9.000;2022-11-20T12:39:34;10.60;99.90
30001;DHT22;16845;48.670;9.000;2022-11-20T12:42:23;12.60;99.90
30001;DHT22;16845;48.670;9.000;2022-11-20T12:45:16;14.40;99.90
30001;DHT22;16845;48.670;9.000;2022-11-20T12:48:03;16.20;99.90
30001;DHT22;16845;48.670;9.000;2022-11-20T12:50:44;17.10;99.90
30001;DHT22;16845;48.670;9.000;2022-11-20T12:53:40;17.10;99.90
30001;DHT22;16845;48.670;9.000;2022-11-20T12:56:21;17.30;99.90
30001;DHT22;16845;48.670;9.000;2022-11-20T12:59:04;16.80;99.90
30001;DHT22;16845;48.670;9.000;2022-11-20T13:01:40;16.50;99.90
30001;DHT22;16845;48.670;9.000;2022-11-20T13:04:25;15.10;99.90
30001;DHT22;16845;48.670;9.000;2022-11-20T13:06:58;14.70;99.90
30001;DHT22;16845;48.670;9.000;2022-11-20T13:09:26;15.10;99.90
30001;DHT22;16845;48.670;9.000;2022-11-20T13:12:01;14.90;99.90
30001;DHT22;16845;48.670;9.000;2022-11-20T13:14:36;15.20;99.90
30001;DHT22;16845;48.670;9.000;2022-11-20T13:17:11;14.50;99.90
30001;DHT22;16845;48.670;9.000;2022-11-20T13:19:41;13.30;99.90
30001;DHT22;16845;48.670;9.000;2022-11-20T13:22:10;11.80;99.90
30001;DHT22;16845;48.670;9.000;2022-11-20T13:24:38;10.80;99.90
30001;DHT22;16845;48.670;9.000;2022-11-20T13:27:19;10.30;99.90
30001;DHT22;16845;48.670;9.000;2022-11-20T13:30:00;9.60;99.90
30001;DHT22;16845;48.670;9.000;2022-11-20T13:32:28;9.10;99.90
30001;DHT22;16845;48.670;9.000;2022-11-20T13:35:01;8.70;99.90
30001;DHT22;16845;48.670;9.000;2022-11-20T13:37:32;8.40;99.90
30001;DHT22;16845;48.670;9.000;2022-11-20T13:40:21;8.10;99.90
30001;DHT22;16845;48.670;9.000;2022-11-20T13:42:55;7.90;99.90
30001;DHT22;16845;48.670;9.000;2022-11-20T13:45:25;7.80;99.90
30001;DHT22;16845;48.670;9.000;2022-11-20T13:47:54;7.60;99.90
30001;DHT22;16845;48.670;9.000;2022-11-20T13:50:39;7.60;99.90
30001;DHT22;16845;48.670;9.000;2022-11-20T13:53:19;7.60;99.90
30001;DHT22;16845;48.670;9.000;2022-11-20T13:55:54;7.70;99.90
30001;DHT22;16845;48.670;9.000;2022-11-20T13:58:36;7.60;99.90
30001;DHT22;16845;48.670;9.000;2022-11-20T14:01:09;7.50;99.90
30001;DHT22;16845;48.670;9.000;2022-11-20T14:03:41;7.30;99.90
30001;DHT22;16845;48.670;9.000;2022-11-20T14:06:31;7.00;99.90
30001;DHT22;16845;48.670;9.000;2022-11-20T14:09:02;6.80;99.90
30001;DHT22;16845;48.670;9.000;2022-11-20T14:11:30;6.80;99.90
30001;DHT22;16845;48.670;9.000;2022-11-20T14:14:00;6.70;99.90
30001;DHT22;16845;48.670;9.000;2022-11-20T14:16:31;6.70;99.90
30001;DHT22;16845;48.670;9.000;2022-11-20T14:19:25;6.70;99.90
30001;DHT22;16845;48.670;9.000;2022-11-20T14:22:05;6.80;99.90
30001;DHT22;16845;48.670;9.000;2022-11-20T14:24:35;6.80;99.90
30001;DHT22;16845;48.670;9.000;2022-11-20T14:27:03;6.90;99.90
30001;DHT22;16845;48.670;9.000;2022-11-20T14:29:35;6.80;99.90
30001;DHT22;16845;48.670;9.000;2022-11-20T14:32:04;6.90;99.90
30001;DHT22;16845;48.670;9.000;2022-11-20T14:34:37;7.00;99.90
30001;DHT22;16845;48.670;9.000;2022-11-20T14:37:10;7.00;99.90
30001;DHT22;16845;48.670;9.000;2022-11-20T14:39:50;7.00;99.90
30001;DHT22;16845;48.670;9.000;2022-11-20T14:42:20;7.00;99.90
30001;DHT22;16845;48.670;9.000;2022-11-20T14:44:49;6.90;99.90
30001;DHT22;16845;48.670;9.000;2022-11-20T14:47:21;6.80;99.90
30001;DHT22;16845;48.670;9.000;2022-11-20T14:49:50;6.80;99.90
30001;DHT22;16845;48.670;9.000;2022-11-20T14:52:20;6.90;99.90
30001;DHT22;16845;48.670;9.000;2022-11-20T14:54:51;6.80;99.90
30001;DHT22;16845;48.670;9.000;2022-11-20T14:57:30;6.90;99.90
30001;DHT22;16845;48.670;9.000;2022-11-20T15:00:17;6.80;99.90
30001;DHT22;16845;48.670;9.000;2022-11-20T15:02:47;6.80;99.90
30001;DHT22;16845;48.670;9.000;2022-11-20T15:05:17;6.70;99.90
30001;DHT22;16845;48.670;9.000;2022-11-20T15:07:47;6.60;99.90
30001;DHT22;16845;48.670;9.000;2022-11-20T15:10:22;6.50;99.90
30001;DHT22;16845;48.670;9.000;2022-11-20T15:12:51;6.40;99.90
30001;DHT22;16845;48.670;9.000;2022-11-20T15:15:23;6.30;99.90
30001;DHT22;16845;48.670;9.000;2022-11-20T15:17:52;6.20;99.90
30001;DHT22;16845;48.670;9.000;2022-11-20T15:20:24;6.20;99.90
30001;DHT22;16845;48.670;9.000;2022-11-20T15:22:53;6.20;99.90
30001;DHT22;16845;48.670;9.000;2022-11-20T15:25:23;6.10;99.90
30001;DHT22;16845;48.670;9.000;2022-11-20T15:27:54;6.00;99.90
30001;DHT22;16845;48.670;9.000;2022-11-20T15:30:23;5.90;99.90
30001;DHT22;16845;48.670;9.000;2022-11-20T15:32:51;5.90;99.90
30001;DHT22;16845;48.670;9.000;2022-11-20T15:35:19;5.80;99.90
30001;DHT22;16845;48.670;9.000;2022-11-20T15:37:47;5.80;99.90
30001;DHT22;16845;48.670;9.000;2022-11-20T15:40:15;5.80;99.90
30001;DHT22;16845;48.670;9.000;2022-11-20T15:42:45;5.80;99.90
30001;DHT22;16845;48.670;9.000;2022-11-20T15:45:28;5.80;99.90
30001;DHT22;16845;48.670;9.000;2022-11-20T15:47:57;5.80;99.90
30001;DHT22;16845;48.670;9.000;2022-11-20T15:50:29;5.70;99.90
30001;DHT22;16845;48.670;9.000;2022-11-20T15:52:59;5.70;99.90
30001;DHT22;16845;48.670;9.000;2022-11-20T15:55:27;5.70;99.90
30001;DHT22;16845;48.670;9.000;2022-11-20T15:57:56;5.60;99.90
30001;DHT22;16845;48.670;9.000;2022-11-20T16:00:24;5.70;99.90
30001;DHT22;16845;48.670;9.000;2022-11-20T16:02:52;5.60;99.90
30001;DHT22;16845;48.670;9.000;2022-11-20T16:05:20;5.60;99.90
30001;DHT22;16845;48.670;9.000;2022-11-20T16:07:50;5.70;99.90
30001;DHT22;16845;48.670;9.000;2022-11-20T16:10:18;5.70;99.90
30001;DHT22;16845;48.670;9.000;2022-11-20T16:12:46;5.80;99.90
30001;DHT22;16845;48.670;9.000;2022-11-20T16:15:33;5.80;99.90
30001;DHT22;16845;48.670;9.000;2022-11-20T16:18:16;5.80;99.90